Gildeskaal — LLDI — position and weather

sailwx.info

Track history (hours):
 
Tides and Currents Weather Stations Pressure Air Temp Water Temp Dewpoint Dewpoint Depression Visibility Wind Speed Wind Dir Waves Ship Positions

Gildeskaal

Last reported at 2015-May-06 07:17 UTC. Time now 2015-May-06 16:30 UTC.
Position N 66°34' E 013°11'.

Length 52 m; draft 3.2 m.

Type: Ship. MMSI: 259680000.

Date/timePositionNaut miles runAvg speedWind from/ knotsBaromVisibWave heightAir tempDewpointWater temp
2015-May-06 07:17N 66°34' E 013°11'24 1.6
2015-May-05 15:33N 66°57' E 013°30'11 9.6
2015-May-05 14:26N 67°03' E 013°54'5 5.2
2015-May-05 13:33N 67°05' E 014°03'3 3.2
2015-May-05 12:33N 67°08' E 013°59'0 0.0
2015-May-05 11:33N 67°08' E 013°59'3 3.2
2015-May-05 10:32N 67°05' E 014°01'1 0.8
2015-May-05 09:33N 67°05' E 013°59'3 2.8
2015-May-05 08:33N 67°08' E 013°59'0 0.2
2015-May-05 07:33N 67°08' E 013°58'3 1.6
2015-May-05 05:30N 67°05' E 014°02'3 3.7
2015-May-05 04:33N 67°08' E 013°59'0 0.0
2015-May-05 03:33N 67°08' E 013°59'0 0.0
2015-May-05 02:33N 67°08' E 013°59'0 0.0
2015-May-05 01:33N 67°08' E 013°59'0 0.0
2015-May-05 00:33N 67°08' E 013°59'0 0.0
2015-May-04 23:33N 67°08' E 013°59'0 0.0
2015-May-04 22:33N 67°08' E 013°59'0 0.0
2015-May-04 21:33N 67°08' E 013°59'0 0.0
2015-May-04 20:33N 67°08' E 013°59'3 3.4
2015-May-04 19:34N 67°05' E 014°02'0 0.2
2015-May-04 18:33N 67°05' E 014°02'0 0.1
2015-May-04 13:27N 67°05' E 014°03'3 3.6
2015-May-04 12:33N 67°08' E 013°59'2 0.8
2015-May-04 09:33N 67°06' E 013°59'2 2.5
2015-May-04 08:33N 67°08' E 013°59'1 1.3
2015-May-04 07:33N 67°07' E 013°59'2 1.1
2015-May-04 05:28N 67°05' E 014°02'3 3.9
2015-May-04 04:33N 67°08' E 013°59'0 0.0
2015-May-04 03:33N 67°08' E 013°59'0 0.0
2015-May-04 02:33N 67°08' E 013°59'0 0.0
2015-May-04 01:33N 67°08' E 013°59'0 0.0
2015-May-04 00:33N 67°08' E 013°59'0 0.0
2015-May-03 23:33N 67°08' E 013°59'0 0.0
2015-May-03 22:33N 67°08' E 013°59'0 0.0
2015-May-03 21:33N 67°08' E 013°59'0 0.0
2015-May-03 20:33N 67°08' E 013°59'0 0.0
2015-May-03 19:33N 67°08' E 013°59'3 1.5
2015-May-03 17:27N 67°05' E 014°03'2 2.4
2015-May-03 16:33N 67°07' E 013°59'3 3.2
2015-May-03 15:33N 67°04' E 014°04'4 4.4
2015-May-03 14:33N 67°08' E 013°59'1 1.4
2015-May-03 13:33N 67°07' E 013°59'3 3.0
2015-May-03 12:30N 67°04' E 014°04'0 0.0
2015-May-03 11:32N 67°04' E 014°04'0 0.0
2015-May-03 10:31N 67°04' E 014°04'0 0.0
2015-May-03 09:29N 67°04' E 014°04'0 0.3
2015-May-03 08:32N 67°05' E 014°04'4 3.6
2015-May-03 07:33N 67°08' E 013°59'4 3.3
2015-May-03 06:25N 67°04' E 014°04'0 0.0
2015-May-03 02:28N 67°04' E 014°04'0 0.0
2015-May-02 19:31N 67°04' E 014°04'0 0.0
2015-May-02 18:33N 67°04' E 014°04'0 0.0
2015-May-02 17:33N 67°04' E 014°04'0 0.0
2015-May-02 16:33N 67°04' E 014°04'2 2.0
2015-May-02 15:33N 67°05' E 013°59'1 1.2
2015-May-02 14:23N 67°05' E 014°03'1 1.2
2015-May-02 13:33N 67°04' E 014°04'0 0.0
2015-May-02 12:33N 67°04' E 014°04'0 0.0
2015-May-02 11:32N 67°04' E 014°04'0 0.0
2015-May-02 10:33N 67°04' E 014°04'3 2.9
2015-May-02 09:33N 67°06' E 013°58'2 1.9
2015-May-02 08:33N 67°08' E 013°59'1 1.3
2015-May-02 07:33N 67°07' E 013°59'2 2.2
2015-May-02 06:29N 67°05' E 014°02'3 3.7
2015-May-02 05:33N 67°08' E 013°59'0 0.0
2015-May-02 04:33N 67°08' E 013°59'0 0.0
2015-May-02 03:33N 67°08' E 013°59'0 0.0
2015-May-02 02:33N 67°08' E 013°59'0 0.0
2015-May-02 01:33N 67°08' E 013°59'0 0.0
2015-May-02 00:33N 67°08' E 013°59'0 0.0
2015-May-01 23:33N 67°08' E 013°59'0 0.0
2015-May-01 22:33N 67°08' E 013°59'0 0.0
2015-May-01 21:33N 67°08' E 013°59'0 0.0
2015-May-01 20:33N 67°08' E 013°59'0 0.0
2015-May-01 19:33N 67°08' E 013°59'4 4.2
2015-May-01 18:32N 67°04' E 014°04'3 3.5
2015-May-01 17:33N 67°07' E 013°59'4 3.4
2015-May-01 16:32N 67°04' E 014°04'1 1.5
2015-May-01 15:33N 67°05' E 014°01'0 0.3
2015-May-01 14:33N 67°05' E 014°01'0 0.2
2015-May-01 13:27N 67°05' E 014°02'3 3.9
2015-May-01 12:33N 67°08' E 013°59'0 0.0
2015-May-01 11:33N 67°08' E 013°59'3 3.2
2015-May-01 10:33N 67°05' E 014°01'1 0.9
2015-May-01 09:33N 67°06' E 013°59'3 2.6
2015-May-01 08:33N 67°08' E 013°59'1 1.2
2015-May-01 07:33N 67°07' E 013°59'2 0.8
2015-May-01 05:22N 67°05' E 013°60'3 3.7
2015-May-01 04:33N 67°08' E 013°59'0 0.0
2015-May-01 03:33N 67°08' E 013°59'0 0.0
2015-May-01 02:33N 67°08' E 013°59'0 0.0
2015-May-01 01:33N 67°08' E 013°59'0 0.0
2015-May-01 00:33N 67°08' E 013°59'0 0.0
2015-Apr-30 23:32N 67°08' E 013°59'0 0.0
2015-Apr-30 22:30N 67°08' E 013°59'0 0.0
2015-Apr-30 21:16N 67°08' E 013°59'0 0.0
2015-Apr-30 20:31N 67°08' E 013°59'0 0.0
2015-Apr-30 19:33N 67°08' E 013°59'3 2.2
2015-Apr-30 18:11N 67°05' E 013°60'2 3.7
2015-Apr-30 17:33N 67°08' E 013°59'2 1.8
2015-Apr-30 16:31N 67°06' E 013°59'2 2.6
2015-Apr-30 15:33N 67°08' E 013°59'3 3.3
2015-Apr-30 14:33N 67°05' E 014°01'1 0.5
2015-Apr-30 13:31N 67°05' E 014°02'3 3.6
2015-Apr-30 12:33N 67°08' E 013°59'0 0.0
2015-Apr-30 11:33N 67°08' E 013°59'2 2.3
2015-Apr-30 10:33N 67°06' E 013°59'0 0.2
2015-Apr-30 09:33N 67°06' E 013°59'3 2.5
2015-Apr-30 08:33N 67°08' E 013°59'1 1.0
2015-Apr-30 07:33N 67°07' E 013°59'3 1.2
2015-Apr-30 05:28N 67°05' E 014°02'3 3.9
2015-Apr-30 04:33N 67°08' E 013°59'0 0.0
2015-Apr-30 03:34N 67°08' E 013°59'0 0.0
2015-Apr-30 02:33N 67°08' E 013°59'0 0.0
2015-Apr-30 01:33N 67°08' E 013°59'0 0.0
2015-Apr-30 00:33N 67°08' E 013°59'0 0.0
2015-Apr-29 23:33N 67°08' E 013°59'0 0.0
2015-Apr-29 22:33N 67°08' E 013°59'0 0.0
2015-Apr-29 21:33N 67°08' E 013°59'0 0.0
2015-Apr-29 20:33N 67°08' E 013°59'0 0.0
2015-Apr-29 19:33N 67°08' E 013°59'4 3.9
2015-Apr-29 18:33N 67°05' E 014°04'3 2.9
2015-Apr-29 17:33N 67°07' E 013°59'2 2.1
2015-Apr-29 16:33N 67°05' E 014°01'3 3.2
2015-Apr-29 15:33N 67°08' E 013°59'3 3.3
2015-Apr-29 14:33N 67°05' E 014°01'1 1.0
2015-Apr-29 13:32N 67°05' E 014°04'4 4.0
2015-Apr-29 12:33N 67°08' E 013°59'0 0.0
2015-Apr-29 11:33N 67°08' E 013°59'3 2.5
2015-Apr-29 10:33N 67°06' E 013°59'0 0.1
2015-Apr-29 09:33N 67°06' E 013°59'3 2.6
2015-Apr-29 08:33N 67°08' E 013°59'2 1.6
2015-Apr-29 07:33N 67°07' E 013°59'2 1.0
2015-Apr-29 05:28N 67°05' E 014°02'3 3.8
2015-Apr-29 04:33N 67°08' E 013°59'0 0.0
2015-Apr-29 03:33N 67°08' E 013°59'0 0.0
2015-Apr-29 02:33N 67°08' E 013°59'0 0.0
2015-Apr-29 01:34N 67°08' E 013°59'0 0.0
2015-Apr-29 00:33N 67°08' E 013°59'0 0.0
2015-Apr-28 23:33N 67°08' E 013°59'0 0.0
2015-Apr-28 22:33N 67°08' E 013°59'0 0.0
2015-Apr-28 21:33N 67°08' E 013°59'0 0.0
2015-Apr-28 20:33N 67°08' E 013°59'0 0.0
2015-Apr-28 19:33N 67°08' E 013°59'3 2.7
2015-Apr-28 18:19N 67°05' E 014°02'2 3.0
2015-Apr-28 17:33N 67°07' E 013°59'2 1.9
2015-Apr-28 16:33N 67°05' E 014°00'3 3.1
2015-Apr-28 15:33N 67°08' E 013°59'3 3.3
2015-Apr-28 14:33N 67°05' E 014°01'1 1.0
2015-Apr-28 13:33N 67°05' E 014°04'4 4.0
2015-Apr-28 12:33N 67°08' E 013°59'0 0.0
2015-Apr-28 11:33N 67°08' E 013°59'2 2.4
2015-Apr-28 10:33N 67°06' E 013°59'0 0.2
2015-Apr-28 09:33N 67°06' E 013°59'3 2.6
2015-Apr-28 08:33N 67°08' E 013°59'1 1.3
2015-Apr-28 07:33N 67°07' E 013°59'2 1.1
2015-Apr-28 05:29N 67°05' E 014°02'3 3.6
2015-Apr-28 04:33N 67°08' E 013°59'0 0.0
2015-Apr-28 03:33N 67°08' E 013°59'0 0.0
2015-Apr-28 02:33N 67°08' E 013°59'0 0.0
2015-Apr-28 01:33N 67°08' E 013°59'0 0.0
2015-Apr-28 00:33N 67°08' E 013°59'0 0.0
2015-Apr-27 23:33N 67°08' E 013°59'0 0.0
2015-Apr-27 22:33N 67°08' E 013°59'0 0.0
2015-Apr-27 21:33N 67°08' E 013°59'0 0.0
2015-Apr-27 20:33N 67°08' E 013°59'0 0.0
2015-Apr-27 19:33N 67°08' E 013°59'4 3.6
2015-Apr-27 18:29N 67°05' E 014°04'3 3.1
2015-Apr-27 17:33N 67°07' E 013°59'2 1.9
2015-Apr-27 16:33N 67°05' E 013°60'3 3.0
2015-Apr-27 15:33N 67°08' E 013°59'3 3.3
2015-Apr-27 14:33N 67°05' E 014°01'1 0.7
2015-Apr-27 13:14N 67°05' E 014°04'4 5.6
2015-Apr-27 12:33N 67°08' E 013°59'3 0.9
2015-Apr-27 09:33N 67°06' E 013°59'3 2.6
2015-Apr-27 08:33N 67°08' E 013°59'1 1.1
2015-Apr-27 07:33N 67°07' E 013°59'3 1.2
2015-Apr-27 05:28N 67°05' E 014°02'3 3.8
2015-Apr-27 04:33N 67°08' E 013°59'0 0.0
2015-Apr-27 03:33N 67°08' E 013°59'0 0.0
2015-Apr-27 02:33N 67°08' E 013°59'0 0.0
2015-Apr-27 01:33N 67°08' E 013°59'0 0.0
2015-Apr-27 00:33N 67°08' E 013°59'0 0.0
2015-Apr-26 23:33N 67°08' E 013°59'0 0.0
2015-Apr-26 22:33N 67°08' E 013°59'0 0.0
2015-Apr-26 21:33N 67°08' E 013°59'0 0.0
2015-Apr-26 20:33N 67°08' E 013°59'0 0.0
2015-Apr-26 19:33N 67°08' E 013°59'3 1.6
2015-Apr-26 17:23N 67°05' E 014°02'3 3.1
2015-Apr-26 16:33N 67°07' E 013°59'3 2.7
2015-Apr-26 15:27N 67°05' E 014°04'4 4.3
2015-Apr-26 14:33N 67°08' E 013°59'1 1.1
2015-Apr-26 13:33N 67°07' E 013°59'3 0.6
2015-Apr-26 08:31N 67°05' E 014°03'3 3.4
2015-Apr-26 07:33N 67°08' E 013°59'  
Track history (hours):
 
Tides and Currents Weather Stations Pressure Air Temp Water Temp Dewpoint Dewpoint Depression Visibility Wind Speed Wind Dir Waves Ship Positions

Gildeskaal

Last reported at 2015-May-06 07:17 UTC. Time now 2015-May-06 16:30 UTC.
Position N 66°34' E 013°11'.

Length 52 m; draft 3.2 m.

Type: Ship. MMSI: 259680000.

Date/timePositionNaut miles runAvg speedWind from/ knotsBaromVisibWave heightAir tempDewpointWater temp
2015-May-06 07:17N 66°34' E 013°11'24 1.6
2015-May-05 15:33N 66°57' E 013°30'11 9.6
2015-May-05 14:26N 67°03' E 013°54'5 5.2
2015-May-05 13:33N 67°05' E 014°03'3 3.2
2015-May-05 12:33N 67°08' E 013°59'0 0.0
2015-May-05 11:33N 67°08' E 013°59'3 3.2
2015-May-05 10:32N 67°05' E 014°01'1 0.8
2015-May-05 09:33N 67°05' E 013°59'3 2.8
2015-May-05 08:33N 67°08' E 013°59'0 0.2
2015-May-05 07:33N 67°08' E 013°58'3 1.6
2015-May-05 05:30N 67°05' E 014°02'3 3.7
2015-May-05 04:33N 67°08' E 013°59'0 0.0
2015-May-05 03:33N 67°08' E 013°59'0 0.0
2015-May-05 02:33N 67°08' E 013°59'0 0.0
2015-May-05 01:33N 67°08' E 013°59'0 0.0
2015-May-05 00:33N 67°08' E 013°59'0 0.0
2015-May-04 23:33N 67°08' E 013°59'0 0.0
2015-May-04 22:33N 67°08' E 013°59'0 0.0
2015-May-04 21:33N 67°08' E 013°59'0 0.0
2015-May-04 20:33N 67°08' E 013°59'3 3.4
2015-May-04 19:34N 67°05' E 014°02'0 0.2
2015-May-04 18:33N 67°05' E 014°02'0 0.1
2015-May-04 13:27N 67°05' E 014°03'3 3.6
2015-May-04 12:33N 67°08' E 013°59'2 0.8
2015-May-04 09:33N 67°06' E 013°59'2 2.5
2015-May-04 08:33N 67°08' E 013°59'1 1.3
2015-May-04 07:33N 67°07' E 013°59'2 1.1
2015-May-04 05:28N 67°05' E 014°02'3 3.9
2015-May-04 04:33N 67°08' E 013°59'0 0.0
2015-May-04 03:33N 67°08' E 013°59'0 0.0
2015-May-04 02:33N 67°08' E 013°59'0 0.0
2015-May-04 01:33N 67°08' E 013°59'0 0.0
2015-May-04 00:33N 67°08' E 013°59'0 0.0
2015-May-03 23:33N 67°08' E 013°59'0 0.0
2015-May-03 22:33N 67°08' E 013°59'0 0.0
2015-May-03 21:33N 67°08' E 013°59'0 0.0
2015-May-03 20:33N 67°08' E 013°59'0 0.0
2015-May-03 19:33N 67°08' E 013°59'3 1.5
2015-May-03 17:27N 67°05' E 014°03'2 2.4
2015-May-03 16:33N 67°07' E 013°59'3 3.2
2015-May-03 15:33N 67°04' E 014°04'4 4.4
2015-May-03 14:33N 67°08' E 013°59'1 1.4
2015-May-03 13:33N 67°07' E 013°59'3 3.0
2015-May-03 12:30N 67°04' E 014°04'0 0.0
2015-May-03 11:32N 67°04' E 014°04'0 0.0
2015-May-03 10:31N 67°04' E 014°04'0 0.0
2015-May-03 09:29N 67°04' E 014°04'0 0.3
2015-May-03 08:32N 67°05' E 014°04'4 3.6
2015-May-03 07:33N 67°08' E 013°59'4 3.3
2015-May-03 06:25N 67°04' E 014°04'0 0.0
2015-May-03 02:28N 67°04' E 014°04'0 0.0
2015-May-02 19:31N 67°04' E 014°04'0 0.0
2015-May-02 18:33N 67°04' E 014°04'0 0.0
2015-May-02 17:33N 67°04' E 014°04'0 0.0
2015-May-02 16:33N 67°04' E 014°04'2 2.0
2015-May-02 15:33N 67°05' E 013°59'1 1.2
2015-May-02 14:23N 67°05' E 014°03'1 1.2
2015-May-02 13:33N 67°04' E 014°04'0 0.0
2015-May-02 12:33N 67°04' E 014°04'0 0.0
2015-May-02 11:32N 67°04' E 014°04'0 0.0
2015-May-02 10:33N 67°04' E 014°04'3 2.9
2015-May-02 09:33N 67°06' E 013°58'2 1.9
2015-May-02 08:33N 67°08' E 013°59'1 1.3
2015-May-02 07:33N 67°07' E 013°59'2 2.2
2015-May-02 06:29N 67°05' E 014°02'3 3.7
2015-May-02 05:33N 67°08' E 013°59'0 0.0
2015-May-02 04:33N 67°08' E 013°59'0 0.0
2015-May-02 03:33N 67°08' E 013°59'0 0.0
2015-May-02 02:33N 67°08' E 013°59'0 0.0
2015-May-02 01:33N 67°08' E 013°59'0 0.0
2015-May-02 00:33N 67°08' E 013°59'0 0.0
2015-May-01 23:33N 67°08' E 013°59'0 0.0
2015-May-01 22:33N 67°08' E 013°59'0 0.0
2015-May-01 21:33N 67°08' E 013°59'0 0.0
2015-May-01 20:33N 67°08' E 013°59'0 0.0
2015-May-01 19:33N 67°08' E 013°59'4 4.2
2015-May-01 18:32N 67°04' E 014°04'3 3.5
2015-May-01 17:33N 67°07' E 013°59'4 3.4
2015-May-01 16:32N 67°04' E 014°04'1 1.5
2015-May-01 15:33N 67°05' E 014°01'0 0.3
2015-May-01 14:33N 67°05' E 014°01'0 0.2
2015-May-01 13:27N 67°05' E 014°02'3 3.9
2015-May-01 12:33N 67°08' E 013°59'0 0.0
2015-May-01 11:33N 67°08' E 013°59'3 3.2
2015-May-01 10:33N 67°05' E 014°01'1 0.9
2015-May-01 09:33N 67°06' E 013°59'3 2.6
2015-May-01 08:33N 67°08' E 013°59'1 1.2
2015-May-01 07:33N 67°07' E 013°59'2 0.8
2015-May-01 05:22N 67°05' E 013°60'3 3.7
2015-May-01 04:33N 67°08' E 013°59'0 0.0
2015-May-01 03:33N 67°08' E 013°59'0 0.0
2015-May-01 02:33N 67°08' E 013°59'0 0.0
2015-May-01 01:33N 67°08' E 013°59'0 0.0
2015-May-01 00:33N 67°08' E 013°59'0 0.0
2015-Apr-30 23:32N 67°08' E 013°59'0 0.0
2015-Apr-30 22:30N 67°08' E 013°59'0 0.0
2015-Apr-30 21:16N 67°08' E 013°59'0 0.0
2015-Apr-30 20:31N 67°08' E 013°59'0 0.0
2015-Apr-30 19:33N 67°08' E 013°59'3 2.2
2015-Apr-30 18:11N 67°05' E 013°60'2 3.7
2015-Apr-30 17:33N 67°08' E 013°59'2 1.8
2015-Apr-30 16:31N 67°06' E 013°59'2 2.6
2015-Apr-30 15:33N 67°08' E 013°59'3 3.3
2015-Apr-30 14:33N 67°05' E 014°01'1 0.5
2015-Apr-30 13:31N 67°05' E 014°02'3 3.6
2015-Apr-30 12:33N 67°08' E 013°59'0 0.0
2015-Apr-30 11:33N 67°08' E 013°59'2 2.3
2015-Apr-30 10:33N 67°06' E 013°59'0 0.2
2015-Apr-30 09:33N 67°06' E 013°59'3 2.5
2015-Apr-30 08:33N 67°08' E 013°59'1 1.0
2015-Apr-30 07:33N 67°07' E 013°59'3 1.2
2015-Apr-30 05:28N 67°05' E 014°02'3 3.9
2015-Apr-30 04:33N 67°08' E 013°59'0 0.0
2015-Apr-30 03:34N 67°08' E 013°59'0 0.0
2015-Apr-30 02:33N 67°08' E 013°59'0 0.0
2015-Apr-30 01:33N 67°08' E 013°59'0 0.0
2015-Apr-30 00:33N 67°08' E 013°59'0 0.0
2015-Apr-29 23:33N 67°08' E 013°59'0 0.0
2015-Apr-29 22:33N 67°08' E 013°59'0 0.0
2015-Apr-29 21:33N 67°08' E 013°59'0 0.0
2015-Apr-29 20:33N 67°08' E 013°59'0 0.0
2015-Apr-29 19:33N 67°08' E 013°59'4 3.9
2015-Apr-29 18:33N 67°05' E 014°04'3 2.9
2015-Apr-29 17:33N 67°07' E 013°59'2 2.1
2015-Apr-29 16:33N 67°05' E 014°01'3 3.2
2015-Apr-29 15:33N 67°08' E 013°59'3 3.3
2015-Apr-29 14:33N 67°05' E 014°01'1 1.0
2015-Apr-29 13:32N 67°05' E 014°04'4 4.0
2015-Apr-29 12:33N 67°08' E 013°59'0 0.0
2015-Apr-29 11:33N 67°08' E 013°59'3 2.5
2015-Apr-29 10:33N 67°06' E 013°59'0 0.1
2015-Apr-29 09:33N 67°06' E 013°59'3 2.6
2015-Apr-29 08:33N 67°08' E 013°59'2 1.6
2015-Apr-29 07:33N 67°07' E 013°59'2 1.0
2015-Apr-29 05:28N 67°05' E 014°02'3 3.8
2015-Apr-29 04:33N 67°08' E 013°59'0 0.0
2015-Apr-29 03:33N 67°08' E 013°59'0 0.0
2015-Apr-29 02:33N 67°08' E 013°59'0 0.0
2015-Apr-29 01:34N 67°08' E 013°59'0 0.0
2015-Apr-29 00:33N 67°08' E 013°59'0 0.0
2015-Apr-28 23:33N 67°08' E 013°59'0 0.0
2015-Apr-28 22:33N 67°08' E 013°59'0 0.0
2015-Apr-28 21:33N 67°08' E 013°59'0 0.0
2015-Apr-28 20:33N 67°08' E 013°59'0 0.0
2015-Apr-28 19:33N 67°08' E 013°59'3 2.7
2015-Apr-28 18:19N 67°05' E 014°02'2 3.0
2015-Apr-28 17:33N 67°07' E 013°59'2 1.9
2015-Apr-28 16:33N 67°05' E 014°00'3 3.1
2015-Apr-28 15:33N 67°08' E 013°59'3 3.3
2015-Apr-28 14:33N 67°05' E 014°01'1 1.0
2015-Apr-28 13:33N 67°05' E 014°04'4 4.0
2015-Apr-28 12:33N 67°08' E 013°59'0 0.0
2015-Apr-28 11:33N 67°08' E 013°59'2 2.4
2015-Apr-28 10:33N 67°06' E 013°59'0 0.2
2015-Apr-28 09:33N 67°06' E 013°59'3 2.6
2015-Apr-28 08:33N 67°08' E 013°59'1 1.3
2015-Apr-28 07:33N 67°07' E 013°59'2 1.1
2015-Apr-28 05:29N 67°05' E 014°02'3 3.6
2015-Apr-28 04:33N 67°08' E 013°59'0 0.0
2015-Apr-28 03:33N 67°08' E 013°59'0 0.0
2015-Apr-28 02:33N 67°08' E 013°59'0 0.0
2015-Apr-28 01:33N 67°08' E 013°59'0 0.0
2015-Apr-28 00:33N 67°08' E 013°59'0 0.0
2015-Apr-27 23:33N 67°08' E 013°59'0 0.0
2015-Apr-27 22:33N 67°08' E 013°59'0 0.0
2015-Apr-27 21:33N 67°08' E 013°59'0 0.0
2015-Apr-27 20:33N 67°08' E 013°59'0 0.0
2015-Apr-27 19:33N 67°08' E 013°59'4 3.6
2015-Apr-27 18:29N 67°05' E 014°04'3 3.1
2015-Apr-27 17:33N 67°07' E 013°59'2 1.9
2015-Apr-27 16:33N 67°05' E 013°60'3 3.0
2015-Apr-27 15:33N 67°08' E 013°59'3 3.3
2015-Apr-27 14:33N 67°05' E 014°01'1 0.7
2015-Apr-27 13:14N 67°05' E 014°04'4 5.6
2015-Apr-27 12:33N 67°08' E 013°59'3 0.9
2015-Apr-27 09:33N 67°06' E 013°59'3 2.6
2015-Apr-27 08:33N 67°08' E 013°59'1 1.1
2015-Apr-27 07:33N 67°07' E 013°59'3 1.2
2015-Apr-27 05:28N 67°05' E 014°02'3 3.8
2015-Apr-27 04:33N 67°08' E 013°59'0 0.0
2015-Apr-27 03:33N 67°08' E 013°59'0 0.0
2015-Apr-27 02:33N 67°08' E 013°59'0 0.0
2015-Apr-27 01:33N 67°08' E 013°59'0 0.0
2015-Apr-27 00:33N 67°08' E 013°59'0 0.0
2015-Apr-26 23:33N 67°08' E 013°59'0 0.0
2015-Apr-26 22:33N 67°08' E 013°59'0 0.0
2015-Apr-26 21:33N 67°08' E 013°59'0 0.0
2015-Apr-26 20:33N 67°08' E 013°59'0 0.0
2015-Apr-26 19:33N 67°08' E 013°59'3 1.6
2015-Apr-26 17:23N 67°05' E 014°02'3 3.1
2015-Apr-26 16:33N 67°07' E 013°59'3 2.7
2015-Apr-26 15:27N 67°05' E 014°04'4 4.3
2015-Apr-26 14:33N 67°08' E 013°59'1 1.1
2015-Apr-26 13:33N 67°07' E 013°59'3 0.6
2015-Apr-26 08:31N 67°05' E 014°03'3 3.4
2015-Apr-26 07:33N 67°08' E 013°59'  

Dump ship's entire track history